sensor_id;sensor_type;location;lat;lon;timestamp;pressure;altitude;pressure_sealevel;temperature;humidity
60099;BME280;62818;49.394;8.686;2023-04-16T00:00:25;100410.47;;;8.37;100.00
60099;BME280;62818;49.394;8.686;2023-04-16T00:01:26;100421.38;;;8.34;100.00
60099;BME280;62818;49.394;8.686;2023-04-16T00:02:26;100408.94;;;8.27;100.00
60099;BME280;62818;49.394;8.686;2023-04-16T00:03:26;100415.06;;;8.27;100.00
60099;BME280;62818;49.394;8.686;2023-04-16T00:04:27;100417.31;;;8.22;100.00
60099;BME280;62818;49.394;8.686;2023-04-16T00:05:27;100419.28;;;8.20;100.00
60099;BME280;62818;49.394;8.686;2023-04-16T00:06:28;100415.41;;;8.32;100.00
60099;BME280;62818;49.394;8.686;2023-04-16T00:07:28;100410.22;;;8.22;100.00
60099;BME280;62818;49.394;8.686;2023-04-16T00:08:29;100410.72;;;8.18;100.00
60099;BME280;62818;49.394;8.686;2023-04-16T00:09:30;100409.06;;;8.17;100.00
60099;BME280;62818;49.394;8.686;2023-04-16T00:10:30;100423.25;;;8.16;100.00
60099;BME280;62818;49.394;8.686;2023-04-16T00:11:31;100418.63;;;8.18;100.00
60099;BME280;62818;49.394;8.686;2023-04-16T00:12:32;100424.06;;;8.16;100.00
60099;BME280;62818;49.394;8.686;2023-04-16T00:13:32;100421.91;;;8.12;100.00
60099;BME280;62818;49.394;8.686;2023-04-16T00:14:33;100417.94;;;8.08;100.00
60099;BME280;62818;49.394;8.686;2023-04-16T00:15:33;100423.22;;;8.08;100.00
60099;BME280;62818;49.394;8.686;2023-04-16T00:16:34;100420.91;;;8.13;100.00
60099;BME280;62818;49.394;8.686;2023-04-16T00:17:34;100423.91;;;8.18;100.00
60099;BME280;62818;49.394;8.686;2023-04-16T00:18:35;100429.53;;;8.15;100.00
60099;BME280;62818;49.394;8.686;2023-04-16T00:19:35;100430.06;;;8.27;100.00
60099;BME280;62818;49.394;8.686;2023-04-16T00:20:36;100423.25;;;8.24;100.00
60099;BME280;62818;49.394;8.686;2023-04-16T00:21:37;100433.72;;;8.26;100.00
60099;BME280;62818;49.394;8.686;2023-04-16T00:22:37;100428.53;;;8.24;100.00
60099;BME280;62818;49.394;8.686;2023-04-16T00:23:38;100423.44;;;8.22;100.00
60099;BME280;62818;49.394;8.686;2023-04-16T00:24:38;100433.25;;;8.30;100.00
60099;BME280;62818;49.394;8.686;2023-04-16T00:25:39;100429.19;;;8.52;100.00
60099;BME280;62818;49.394;8.686;2023-04-16T00:26:40;100429.28;;;8.34;100.00
60099;BME280;62818;49.394;8.686;2023-04-16T00:27:40;100426.75;;;8.24;100.00
60099;BME280;62818;49.394;8.686;2023-04-16T00:28:40;100426.56;;;8.18;100.00
60099;BME280;62818;49.394;8.686;2023-04-16T00:29:41;100428.88;;;8.21;100.00
60099;BME280;62818;49.394;8.686;2023-04-16T00:30:41;100432.50;;;8.20;100.00
60099;BME280;62818;49.394;8.686;2023-04-16T00:31:42;100430.19;;;8.17;100.00
60099;BME280;62818;49.394;8.686;2023-04-16T00:32:43;100423.25;;;8.16;100.00
60099;BME280;62818;49.394;8.686;2023-04-16T00:33:43;100433.50;;;8.19;100.00
60099;BME280;62818;49.394;8.686;2023-04-16T00:34:43;100430.19;;;8.17;100.00
60099;BME280;62818;49.394;8.686;2023-04-16T00:35:47;100426.56;;;8.18;100.00
60099;BME280;62818;49.394;8.686;2023-04-16T00:36:48;100435.78;;;8.14;100.00
60099;BME280;62818;49.394;8.686;2023-04-16T00:37:48;100429.34;;;8.16;100.00
60099;BME280;62818;49.394;8.686;2023-04-16T00:38:49;100427.19;;;8.12;100.00
60099;BME280;62818;49.394;8.686;2023-04-16T00:39:50;100421.91;;;8.12;100.00
60099;BME280;62818;49.394;8.686;2023-04-16T00:40:51;100430.31;;;8.15;100.00
60099;BME280;62818;49.394;8.686;2023-04-16T00:41:51;100426.25;;;8.21;100.00
60099;BME280;62818;49.394;8.686;2023-04-16T00:42:51;100421.78;;;8.21;100.00
60099;BME280;62818;49.394;8.686;2023-04-16T00:43:52;100424.56;;;8.20;100.00
60099;BME280;62818;49.394;8.686;2023-04-16T00:44:52;100430.22;;;8.25;100.00
60099;BME280;62818;49.394;8.686;2023-04-16T00:45:55;100429.19;;;8.18;100.00
60099;BME280;62818;49.394;8.686;2023-04-16T00:46:56;100428.72;;;8.22;100.00
60099;BME280;62818;49.394;8.686;2023-04-16T00:47:58;100430.19;;;8.17;100.00
60099;BME280;62818;49.394;8.686;2023-04-16T00:48:59;100434.47;;;8.18;100.00
60099;BME280;62818;49.394;8.686;2023-04-16T00:50:05;100431.34;;;8.14;100.00
60099;BME280;62818;49.394;8.686;2023-04-16T00:51:07;100423.75;;;8.19;100.00
60099;BME280;62818;49.394;8.686;2023-04-16T00:52:10;100429.19;;;8.18;100.00
60099;BME280;62818;49.394;8.686;2023-04-16T00:53:12;100433.91;;;8.32;100.00
60099;BME280;62818;49.394;8.686;2023-04-16T00:54:13;100429.72;;;8.21;100.00
60099;BME280;62818;49.394;8.686;2023-04-16T00:55:14;100431.53;;;8.21;100.00
60099;BME280;62818;49.394;8.686;2023-04-16T00:56:18;100428.69;;;8.14;100.00
60099;BME280;62818;49.394;8.686;2023-04-16T00:57:18;100432.50;;;8.20;100.00
60099;BME280;62818;49.394;8.686;2023-04-16T00:58:20;100428.88;;;8.21;100.00
60099;BME280;62818;49.394;8.686;2023-04-16T00:59:20;100430.84;;;8.19;100.00
60099;BME280;62818;49.394;8.686;2023-04-16T01:00:21;100426.63;;;8.26;100.00
60099;BME280;62818;49.394;8.686;2023-04-16T01:01:22;100430.91;;;8.27;100.00
60099;BME280;62818;49.394;8.686;2023-04-16T01:02:22;100436.63;;;8.22;100.00
60099;BME280;62818;49.394;8.686;2023-04-16T01:03:31;100429.53;;;8.23;100.00
60099;BME280;62818;49.394;8.686;2023-04-16T01:04:37;100436.19;;;8.27;100.00
60099;BME280;62818;49.394;8.686;2023-04-16T01:05:38;100430.38;;;8.23;100.00
60099;BME280;62818;49.394;8.686;2023-04-16T01:06:39;100431.81;;;8.18;100.00
60099;BME280;62818;49.394;8.686;2023-04-16T01:07:39;100441.06;;;8.14;100.00
60099;BME280;62818;49.394;8.686;2023-04-16T01:08:40;100434.63;;;8.16;100.00
60099;BME280;62818;49.394;8.686;2023-04-16T01:09:40;100439.28;;;8.22;100.00
60099;BME280;62818;49.394;8.686;2023-04-16T01:10:40;100431.19;;;8.24;100.00
60099;BME280;62818;49.394;8.686;2023-04-16T01:11:41;100436.88;;;8.37;100.00
60099;BME280;62818;49.394;8.686;2023-04-16T01:12:41;100431.91;;;8.26;100.00
60099;BME280;62818;49.394;8.686;2023-04-16T01:13:42;100432.84;;;8.25;100.00
60099;BME280;62818;49.394;8.686;2023-04-16T01:14:42;100429.09;;;8.28;100.00
60099;BME280;62818;49.394;8.686;2023-04-16T01:15:43;100431.19;;;8.24;100.00
60099;BME280;62818;49.394;8.686;2023-04-16T01:16:43;100429.78;;;8.30;100.00
60099;BME280;62818;49.394;8.686;2023-04-16T01:17:47;100431.91;;;8.26;100.00
60099;BME280;62818;49.394;8.686;2023-04-16T01:18:47;100434.56;;;8.26;100.00
60099;BME280;62818;49.394;8.686;2023-04-16T01:19:48;100428.63;;;8.32;100.00
60099;BME280;62818;49.394;8.686;2023-04-16T01:20:49;100436.25;;;8.43;100.00
60099;BME280;62818;49.394;8.686;2023-04-16T01:21:50;100428.66;;;8.48;100.00
60099;BME280;62818;49.394;8.686;2023-04-16T01:22:51;100428.66;;;8.40;100.00
60099;BME280;62818;49.394;8.686;2023-04-16T01:23:51;100431.28;;;8.40;100.00
60099;BME280;62818;49.394;8.686;2023-04-16T01:24:51;100428.19;;;8.53;100.00
60099;BME280;62818;49.394;8.686;2023-04-16T01:25:52;100431.66;;;8.53;100.00
60099;BME280;62818;49.394;8.686;2023-04-16T01:26:52;100428.34;;;8.43;100.00
60099;BME280;62818;49.394;8.686;2023-04-16T01:27:53;100439.22;;;8.48;100.00
60099;BME280;62818;49.394;8.686;2023-04-16T01:28:53;100434.44;;;8.44;100.00
60099;BME280;62818;49.394;8.686;2023-04-16T01:29:54;100432.47;;;8.46;100.00
60099;BME280;62818;49.394;8.686;2023-04-16T01:30:55;100437.22;;;8.42;100.00
60099;BME280;62818;49.394;8.686;2023-04-16T01:31:55;100440.91;;;8.57;100.00
60099;BME280;62818;49.394;8.686;2023-04-16T01:32:56;100437.56;;;8.39;100.00
60099;BME280;62818;49.394;8.686;2023-04-16T01:33:57;100433.09;;;8.40;100.00
60099;BME280;62818;49.394;8.686;2023-04-16T01:34:57;100434.09;;;8.39;100.00
60099;BME280;62818;49.394;8.686;2023-04-16T01:35:58;100430.78;;;8.37;100.00
60099;BME280;62818;49.394;8.686;2023-04-16T01:36:58;100441.84;;;8.40;100.00
60099;BME280;62818;49.394;8.686;2023-04-16T01:37:58;100438.25;;;8.41;100.00
60099;BME280;62818;49.394;8.686;2023-04-16T01:38:59;100442.38;;;8.44;100.00
60099;BME280;62818;49.394;8.686;2023-04-16T01:39:59;100437.91;;;8.44;100.00
60099;BME280;62818;49.394;8.686;2023-04-16T01:41:00;100438.25;;;8.41;100.00
60099;BME280;62818;49.394;8.686;2023-04-16T01:42:01;100445.16;;;8.42;100.00
60099;BME280;62818;49.394;8.686;2023-04-16T01:43:01;100449.09;;;8.38;100.00
60099;BME280;62818;49.394;8.686;2023-04-16T01:44:02;100450.13;;;8.45;100.00
60099;BME280;62818;49.394;8.686;2023-04-16T01:45:03;100442.38;;;8.44;100.00
60099;BME280;62818;49.394;8.686;2023-04-16T01:46:12;100445.63;;;8.30;100.00
60099;BME280;62818;49.394;8.686;2023-04-16T01:47:17;100446.44;;;8.30;100.00
60099;BME280;62818;49.394;8.686;2023-04-16T01:48:17;100454.03;;;8.33;100.00
60099;BME280;62818;49.394;8.686;2023-04-16T01:49:18;100448.13;;;8.39;100.00
60099;BME280;62818;49.394;8.686;2023-04-16T01:50:19;100455.03;;;8.32;100.00
60099;BME280;62818;49.394;8.686;2023-04-16T01:51:20;100451.06;;;8.28;100.00
60099;BME280;62818;49.394;8.686;2023-04-16T01:52:21;100450.78;;;8.39;100.00
60099;BME280;62818;49.394;8.686;2023-04-16T01:53:21;100449.84;;;8.22;100.00
60099;BME280;62818;49.394;8.686;2023-04-16T01:54:22;100453.16;;;8.24;100.00
60099;BME280;62818;49.394;8.686;2023-04-16T01:55:23;100459.00;;;8.28;100.00
60099;BME280;62818;49.394;8.686;2023-04-16T01:56:24;100450.25;;;8.36;100.00
60099;BME280;62818;49.394;8.686;2023-04-16T01:57:25;100454.38;;;8.30;100.00
60099;BME280;62818;49.394;8.686;2023-04-16T01:58:27;100450.66;;;8.23;100.00
60099;BME280;62818;49.394;8.686;2023-04-16T01:59:28;100454.44;;;8.20;100.00
60099;BME280;62818;49.394;8.686;2023-04-16T02:00:29;100452.47;;;8.22;100.00
60099;BME280;62818;49.394;8.686;2023-04-16T02:01:29;100459.56;;;8.22;100.00
60099;BME280;62818;49.394;8.686;2023-04-16T02:02:30;100465.47;;;8.16;100.00
60099;BME280;62818;49.394;8.686;2023-04-16T02:03:31;100453.78;;;8.18;100.00
60099;BME280;62818;49.394;8.686;2023-04-16T02:04:31;100459.22;;;8.17;100.00
60099;BME280;62818;49.394;8.686;2023-04-16T02:05:32;100454.63;;;8.19;100.00
60099;BME280;62818;49.394;8.686;2023-04-16T02:06:32;100461.53;;;8.20;100.00
60099;BME280;62818;49.394;8.686;2023-04-16T02:07:33;100454.50;;;8.29;100.00
60099;BME280;62818;49.394;8.686;2023-04-16T02:08:33;100449.00;;;8.22;100.00
60099;BME280;62818;49.394;8.686;2023-04-16T02:09:35;100452.28;;;8.16;100.00
60099;BME280;62818;49.394;8.686;2023-04-16T02:10:39;100451.91;;;8.11;100.00
60099;BME280;62818;49.394;8.686;2023-04-16T02:11:39;100458.56;;;8.15;100.00
60099;BME280;62818;49.394;8.686;2023-04-16T02:12:40;100453.94;;;8.17;100.00
60099;BME280;62818;49.394;8.686;2023-04-16T02:13:40;100454.91;;;8.16;100.00
60099;BME280;62818;49.394;8.686;2023-04-16T02:14:41;100458.19;;;8.10;100.00
60099;BME280;62818;49.394;8.686;2023-04-16T02:15:49;100467.56;;;8.04;100.00
60099;BME280;62818;49.394;8.686;2023-04-16T02:16:50;100464.78;;;8.06;100.00
60099;BME280;62818;49.394;8.686;2023-04-16T02:17:51;100465.47;;;8.08;100.00
60099;BME280;62818;49.394;8.686;2023-04-16T02:18:55;100465.28;;;8.09;100.00
60099;BME280;62818;49.394;8.686;2023-04-16T02:19:56;100466.44;;;8.07;100.00
60099;BME280;62818;49.394;8.686;2023-04-16T02:20:57;100470.06;;;8.06;100.00
60099;BME280;62818;49.394;8.686;2023-04-16T02:22:01;100462.75;;;8.00;100.00
60099;BME280;62818;49.394;8.686;2023-04-16T02:23:02;100465.59;;;8.06;100.00
60099;BME280;62818;49.394;8.686;2023-04-16T02:24:03;100467.06;;;8.01;100.00
60099;BME280;62818;49.394;8.686;2023-04-16T02:25:03;100466.06;;;8.02;100.00
60099;BME280;62818;49.394;8.686;2023-04-16T02:26:04;100456.19;;;8.04;100.00
60099;BME280;62818;49.394;8.686;2023-04-16T02:27:05;100469.44;;;8.12;100.00
60099;BME280;62818;49.394;8.686;2023-04-16T02:28:08;100469.72;;;8.09;100.00
60099;BME280;62818;49.394;8.686;2023-04-16T02:29:09;100462.19;;;8.14;100.00
60099;BME280;62818;49.394;8.686;2023-04-16T02:30:10;100464.16;;;8.12;100.00
60099;BME280;62818;49.394;8.686;2023-04-16T02:31:11;100467.75;;;8.11;100.00
60099;BME280;62818;49.394;8.686;2023-04-16T02:32:12;100472.03;;;8.04;100.00
60099;BME280;62818;49.394;8.686;2023-04-16T02:33:12;100464.63;;;8.07;100.00
60099;BME280;62818;49.394;8.686;2023-04-16T02:34:13;100461.81;;;8.09;100.00
60099;BME280;62818;49.394;8.686;2023-04-16T02:35:14;100463.16;;;8.13;100.00
60099;BME280;62818;49.394;8.686;2023-04-16T02:36:15;100460.19;;;8.16;100.00
60099;BME280;62818;49.394;8.686;2023-04-16T02:37:15;100467.47;;;8.14;100.00
60099;BME280;62818;49.394;8.686;2023-04-16T02:38:16;100474.34;;;8.07;100.00
60099;BME280;62818;49.394;8.686;2023-04-16T02:39:16;100470.06;;;8.06;100.00
60099;BME280;62818;49.394;8.686;2023-04-16T02:40:17;100470.66;;;8.00;100.00
60099;BME280;62818;49.394;8.686;2023-04-16T02:41:17;100469.53;;;8.02;100.00
60099;BME280;62818;49.394;8.686;2023-04-16T02:42:18;100473.00;;;8.03;100.00
60099;BME280;62818;49.394;8.686;2023-04-16T02:43:18;100473.69;;;8.05;100.00
60099;BME280;62818;49.394;8.686;2023-04-16T02:44:19;100476.47;;;8.03;100.00
60099;BME280;62818;49.394;8.686;2023-04-16T02:45:19;100473.63;;;7.97;100.00
60099;BME280;62818;49.394;8.686;2023-04-16T02:46:20;100481.41;;;7.98;100.00
60099;BME280;62818;49.394;8.686;2023-04-16T02:47:20;100481.97;;;8.10;100.00
60099;BME280;62818;49.394;8.686;2023-04-16T02:48:21;100480.94;;;8.03;100.00
60099;BME280;62818;49.394;8.686;2023-04-16T02:49:21;100475.66;;;8.03;100.00
60099;BME280;62818;49.394;8.686;2023-04-16T02:50:22;100474.81;;;8.02;100.00
60099;BME280;62818;49.394;8.686;2023-04-16T02:51:23;100475.00;;;8.09;100.00
60099;BME280;62818;49.394;8.686;2023-04-16T02:52:23;100485.91;;;8.06;100.00
60099;BME280;62818;49.394;8.686;2023-04-16T02:53:24;100475.00;;;8.09;100.00
60099;BME280;62818;49.394;8.686;2023-04-16T02:54:24;100476.69;;;8.10;100.00
60099;BME280;62818;49.394;8.686;2023-04-16T02:55:25;100481.59;;;8.05;100.00
60099;BME280;62818;49.394;8.686;2023-04-16T02:56:25;100484.25;;;8.05;100.00
60099;BME280;62818;49.394;8.686;2023-04-16T02:57:26;100476.97;;;8.07;100.00
60099;BME280;62818;49.394;8.686;2023-04-16T02:58:26;100476.47;;;8.03;100.00
60099;BME280;62818;49.394;8.686;2023-04-16T02:59:27;100481.97;;;8.10;100.00
60099;BME280;62818;49.394;8.686;2023-04-16T03:00:27;100479.06;;;8.21;100.00
60099;BME280;62818;49.394;8.686;2023-04-16T03:01:28;100469.81;;;8.25;100.00
60099;BME280;62818;49.394;8.686;2023-04-16T03:02:28;100471.91;;;8.13;100.00
60099;BME280;62818;49.394;8.686;2023-04-16T03:03:29;100473.53;;;8.32;100.00
60099;BME280;62818;49.394;8.686;2023-04-16T03:04:31;100471.44;;;8.18;100.00
60099;BME280;62818;49.394;8.686;2023-04-16T03:05:32;100469.81;;;8.25;100.00
60099;BME280;62818;49.394;8.686;2023-04-16T03:06:32;100476.25;;;8.22;100.00
60099;BME280;62818;49.394;8.686;2023-04-16T03:07:33;100473.34;;;8.26;100.00
60099;BME280;62818;49.394;8.686;2023-04-16T03:08:34;100467.81;;;8.19;100.00
60099;BME280;62818;49.394;8.686;2023-04-16T03:09:35;100479.34;;;8.18;100.00
60099;BME280;62818;49.394;8.686;2023-04-16T03:10:35;100472.09;;;8.20;100.00
60099;BME280;62818;49.394;8.686;2023-04-16T03:11:36;100477.50;;;8.36;100.00
60099;BME280;62818;49.394;8.686;2023-04-16T03:12:36;100479.47;;;8.34;100.00
60099;BME280;62818;49.394;8.686;2023-04-16T03:13:38;100473.53;;;8.32;100.00
60099;BME280;62818;49.394;8.686;2023-04-16T03:14:38;100471.06;;;8.39;100.00
60099;BME280;62818;49.394;8.686;2023-04-16T03:15:39;100475.41;;;8.48;100.00
60099;BME280;62818;49.394;8.686;2023-04-16T03:16:39;100472.09;;;8.46;100.00
60099;BME280;62818;49.394;8.686;2023-04-16T03:17:40;100473.91;;;8.53;100.00
60099;BME280;62818;49.394;8.686;2023-04-16T03:18:41;100468.25;;;8.32;100.00
60099;BME280;62818;49.394;8.686;2023-04-16T03:19:41;100469.22;;;8.31;100.00
60099;BME280;62818;49.394;8.686;2023-04-16T03:20:41;100471.72;;;8.33;100.00
60099;BME280;62818;49.394;8.686;2023-04-16T03:21:42;100467.97;;;8.43;100.00
60099;BME280;62818;49.394;8.686;2023-04-16T03:22:42;100471.38;;;8.36;100.00
60099;BME280;62818;49.394;8.686;2023-04-16T03:23:43;100459.38;;;8.41;100.00
60099;BME280;62818;49.394;8.686;2023-04-16T03:24:43;100467.97;;;8.43;100.00
60099;BME280;62818;49.394;8.686;2023-04-16T03:25:44;100472.53;;;8.33;100.00
60099;BME280;62818;49.394;8.686;2023-04-16T03:26:47;100468.75;;;8.36;100.00
60099;BME280;62818;49.394;8.686;2023-04-16T03:27:47;100463.53;;;8.52;100.00
60099;BME280;62818;49.394;8.686;2023-04-16T03:28:47;100462.69;;;8.43;100.00
60099;BME280;62818;49.394;8.686;2023-04-16T03:29:48;100465.63;;;8.40;100.00
60099;BME280;62818;49.394;8.686;2023-04-16T03:30:52;100465.34;;;8.51;100.00
60099;BME280;62818;49.394;8.686;2023-04-16T03:31:53;100475.22;;;8.41;100.00
60099;BME280;62818;49.394;8.686;2023-04-16T03:32:53;100477.50;;;8.36;100.00
60099;BME280;62818;49.394;8.686;2023-04-16T03:33:54;100476.47;;;8.29;100.00
60099;BME280;62818;49.394;8.686;2023-04-16T03:34:55;100478.72;;;8.24;100.00
60099;BME280;62818;49.394;8.686;2023-04-16T03:35:56;100478.88;;;8.22;100.00
60099;BME280;62818;49.394;8.686;2023-04-16T03:36:57;100470.69;;;8.26;100.00
60099;BME280;62818;49.394;8.686;2023-04-16T03:37:58;100476.72;;;8.18;100.00
60099;BME280;62818;49.394;8.686;2023-04-16T03:38:58;100483.00;;;8.17;100.00
60099;BME280;62818;49.394;8.686;2023-04-16T03:39:59;100484.63;;;8.18;100.00
60099;BME280;62818;49.394;8.686;2023-04-16T03:40:59;100483.66;;;8.19;100.00
60099;BME280;62818;49.394;8.686;2023-04-16T03:42:00;100482.66;;;8.20;100.00
60099;BME280;62818;49.394;8.686;2023-04-16T03:43:01;100492.38;;;8.19;100.00
60099;BME280;62818;49.394;8.686;2023-04-16T03:44:01;100489.91;;;8.18;100.00
60099;BME280;62818;49.394;8.686;2023-04-16T03:45:05;100492.38;;;8.19;100.00
60099;BME280;62818;49.394;8.686;2023-04-16T03:46:06;100486.97;;;8.21;100.00
60099;BME280;62818;49.394;8.686;2023-04-16T03:47:06;100483.31;;;8.22;100.00
60099;BME280;62818;49.394;8.686;2023-04-16T03:48:07;100484.63;;;8.18;100.00
60099;BME280;62818;49.394;8.686;2023-04-16T03:49:07;100494.88;;;8.21;100.00
60099;BME280;62818;49.394;8.686;2023-04-16T03:50:08;100488.72;;;8.38;100.00
60099;BME280;62818;49.394;8.686;2023-04-16T03:51:09;100486.81;;;8.22;100.00
60099;BME280;62818;49.394;8.686;2023-04-16T03:52:09;100483.19;;;8.23;100.00
60099;BME280;62818;49.394;8.686;2023-04-16T03:53:10;100480.38;;;8.25;100.00
60099;BME280;62818;49.394;8.686;2023-04-16T03:54:10;100482.13;;;8.42;100.00
60099;BME280;62818;49.394;8.686;2023-04-16T03:55:11;100485.13;;;8.47;100.00
60099;BME280;62818;49.394;8.686;2023-04-16T03:56:13;100478.94;;;8.31;100.00
60099;BME280;62818;49.394;8.686;2023-04-16T03:57:13;100491.13;;;8.23;100.00
60099;BME280;62818;49.394;8.686;2023-04-16T03:58:13;100487.81;;;8.21;100.00
60099;BME280;62818;49.394;8.686;2023-04-16T03:59:14;100491.59;;;8.19;100.00
60099;BME280;62818;49.394;8.686;2023-04-16T04:00:15;100489.91;;;8.18;100.00
60099;BME280;62818;49.394;8.686;2023-04-16T04:01:15;100487.94;;;8.20;100.00
60099;BME280;62818;49.394;8.686;2023-04-16T04:02:16;100483.19;;;8.23;100.00
60099;BME280;62818;49.394;8.686;2023-04-16T04:03:16;100482.00;;;8.18;100.00
60099;BME280;62818;49.394;8.686;2023-04-16T04:04:17;100484.34;;;8.21;100.00
60099;BME280;62818;49.394;8.686;2023-04-16T04:05:17;100494.22;;;8.19;100.00
60099;BME280;62818;49.394;8.686;2023-04-16T04:06:18;100481.34;;;8.24;100.00
60099;BME280;62818;49.394;8.686;2023-04-16T04:07:18;100487.38;;;8.26;100.00
60099;BME280;62818;49.394;8.686;2023-04-16T04:08:19;100491.59;;;8.19;100.00
60099;BME280;62818;49.394;8.686;2023-04-16T04:09:19;100498.66;;;8.18;100.00
60099;BME280;62818;49.394;8.686;2023-04-16T04:10:20;100495.13;;;8.28;100.00
60099;BME280;62818;49.394;8.686;2023-04-16T04:11:20;100497.16;;;8.16;100.00
60099;BME280;62818;49.394;8.686;2023-04-16T04:12:21;100504.44;;;8.22;100.00
60099;BME280;62818;49.394;8.686;2023-04-16T04:13:21;100500.81;;;8.15;100.00
60099;BME280;62818;49.394;8.686;2023-04-16T04:14:22;100500.47;;;8.18;100.00
60099;BME280;62818;49.394;8.686;2023-04-16T04:15:22;100504.84;;;8.27;100.00
60099;BME280;62818;49.394;8.686;2023-04-16T04:16:23;100500.16;;;8.21;100.00
60099;BME280;62818;49.394;8.686;2023-04-16T04:17:23;100501.50;;;8.25;100.00
60099;BME280;62818;49.394;8.686;2023-04-16T04:18:24;100506.53;;;8.28;100.00
60099;BME280;62818;49.394;8.686;2023-04-16T04:19:24;100505.13;;;8.24;100.00
60099;BME280;62818;49.394;8.686;2023-04-16T04:20:25;100498.94;;;8.33;100.00
60099;BME280;62818;49.394;8.686;2023-04-16T04:21:28;100503.31;;;8.24;100.00
60099;BME280;62818;49.394;8.686;2023-04-16T04:22:29;100508.50;;;8.26;100.00
60099;BME280;62818;49.394;8.686;2023-04-16T04:23:29;100506.78;;;8.25;100.00
60099;BME280;62818;49.394;8.686;2023-04-16T04:24:30;100501.81;;;8.22;100.00
60099;BME280;62818;49.394;8.686;2023-04-16T04:25:30;100509.22;;;8.44;100.00
60099;BME280;62818;49.394;8.686;2023-04-16T04:26:31;100496.81;;;8.37;100.00
60099;BME280;62818;49.394;8.686;2023-04-16T04:27:31;100499.47;;;8.37;100.00
60099;BME280;62818;49.394;8.686;2023-04-16T04:28:33;100498.94;;;8.33;100.00
60099;BME280;62818;49.394;8.686;2023-04-16T04:29:34;100500.22;;;8.29;100.00
60099;BME280;62818;49.394;8.686;2023-04-16T04:30:34;100505.13;;;8.24;100.00
60099;BME280;62818;49.394;8.686;2023-04-16T04:31:35;100511.22;;;8.24;100.00
60099;BME280;62818;49.394;8.686;2023-04-16T04:32:35;100500.22;;;8.29;100.00
60099;BME280;62818;49.394;8.686;2023-04-16T04:33:36;100497.59;;;8.29;100.00
60099;BME280;62818;49.394;8.686;2023-04-16T04:34:36;100505.22;;;8.32;100.00
60099;BME280;62818;49.394;8.686;2023-04-16T04:35:37;100504.00;;;8.60;100.00
60099;BME280;62818;49.394;8.686;2023-04-16T04:36:38;100507.53;;;8.35;100.00
60099;BME280;62818;49.394;8.686;2023-04-16T04:37:39;100502.66;;;8.22;100.00
60099;BME280;62818;49.394;8.686;2023-04-16T04:38:39;100502.38;;;8.26;100.00
60099;BME280;62818;49.394;8.686;2023-04-16T04:39:40;100501.56;;;8.33;100.00
60099;BME280;62818;49.394;8.686;2023-04-16T04:40:40;100503.47;;;8.23;100.00
60099;BME280;62818;49.394;8.686;2023-04-16T04:41:41;100507.09;;;8.22;100.00
60099;BME280;62818;49.394;8.686;2023-04-16T04:42:41;100510.56;;;8.22;100.00
60099;BME280;62818;49.394;8.686;2023-04-16T04:43:42;100514.78;;;8.33;100.00
60099;BME280;62818;49.394;8.686;2023-04-16T04:44:42;100518.72;;;8.29;100.00
60099;BME280;62818;49.394;8.686;2023-04-16T04:45:43;100518.41;;;8.32;100.00
60099;BME280;62818;49.394;8.686;2023-04-16T04:46:44;100517.34;;;8.25;100.00
60099;BME280;62818;49.394;8.686;2023-04-16T04:47:45;100518.72;;;8.29;100.00
60099;BME280;62818;49.394;8.686;2023-04-16T04:48:45;100520.72;;;8.35;100.00
60099;BME280;62818;49.394;8.686;2023-04-16T04:49:45;100519.56;;;8.30;100.00
60099;BME280;62818;49.394;8.686;2023-04-16T04:50:46;100512.38;;;8.22;100.00
60099;BME280;62818;49.394;8.686;2023-04-16T04:51:47;100520.00;;;8.25;100.00
60099;BME280;62818;49.394;8.686;2023-04-16T04:52:47;100520.97;;;8.24;100.00
60099;BME280;62818;49.394;8.686;2023-04-16T04:53:48;100530.56;;;8.25;100.00
60099;BME280;62818;49.394;8.686;2023-04-16T04:54:48;100520.38;;;8.30;100.00
60099;BME280;62818;49.394;8.686;2023-04-16T04:55:49;100527.84;;;8.35;100.00
60099;BME280;62818;49.394;8.686;2023-04-16T04:56:49;100525.03;;;8.36;100.00
60099;BME280;62818;49.394;8.686;2023-04-16T04:57:51;100530.13;;;8.30;100.00
60099;BME280;62818;49.394;8.686;2023-04-16T04:58:52;100525.34;;;8.33;100.00
60099;BME280;62818;49.394;8.686;2023-04-16T04:59:53;100526.41;;;8.48;100.00
60099;BME280;62818;49.394;8.686;2023-04-16T05:00:54;100527.09;;;8.50;100.00
60099;BME280;62818;49.394;8.686;2023-04-16T05:01:54;100534.75;;;8.36;100.00
60099;BME280;62818;49.394;8.686;2023-04-16T05:02:55;100535.78;;;8.43;100.00
60099;BME280;62818;49.394;8.686;2023-04-16T05:03:55;100533.63;;;8.38;100.00
60099;BME280;62818;49.394;8.686;2023-04-16T05:04:56;100534.97;;;8.42;100.00
60099;BME280;62818;49.394;8.686;2023-04-16T05:05:56;100532.28;;;8.34;100.00
60099;BME280;62818;49.394;8.686;2023-04-16T05:06:57;100537.56;;;8.34;100.00
60099;BME280;62818;49.394;8.686;2023-04-16T05:07:57;100545.13;;;8.29;100.00
60099;BME280;62818;49.394;8.686;2023-04-16T05:08:58;100537.88;;;8.31;100.00
60099;BME280;62818;49.394;8.686;2023-04-16T05:09:58;100536.75;;;8.34;100.00
60099;BME280;62818;49.394;8.686;2023-04-16T05:10:58;100544.47;;;8.27;100.00
60099;BME280;62818;49.394;8.686;2023-04-16T05:11:59;100541.28;;;8.23;100.00
60099;BME280;62818;49.394;8.686;2023-04-16T05:13:00;100549.34;;;8.22;100.00
60099;BME280;62818;49.394;8.686;2023-04-16T05:14:00;100539.09;;;8.19;100.00
60099;BME280;62818;49.394;8.686;2023-04-16T05:15:01;100548.84;;;8.18;100.00
60099;BME280;62818;49.394;8.686;2023-04-16T05:16:01;100545.19;;;8.19;100.00
60099;BME280;62818;49.394;8.686;2023-04-16T05:17:02;100547.34;;;8.16;100.00
60099;BME280;62818;49.394;8.686;2023-04-16T05:18:02;100537.78;;;8.15;100.00